Time;durP1;ratioP1;P1;durP2;ratioP2;P2;SDS_P1;SDS_P2;PMS_P1;PMS_P2;Temp;Humidity;BMP_temperature;BMP_pressure;BME280_temperature;BME280_humidity;BME280_pressure;Samples;Min_cycle;Max_cycle;Signal;HPM_P1;HPM_P2
2022/09/05 00:02:02;;;;;;;7.45;2.35;;;14.50;99.90;;;;;;4996672;28;20471;-68
2022/09/05 00:04:56;;;;;;;7.93;1.77;;;14.50;99.90;;;;;;4996303;28;20033;-68
2022/09/05 00:07:44;;;;;;;13.05;2.50;;;14.50;99.90;;;;;;4996048;28;20486;-68
2022/09/05 00:10:23;;;;;;;8.60;2.22;;;14.50;99.90;;;;;;4995360;28;20048;-69
2022/09/05 00:12:51;;;;;;;7.57;2.10;;;14.50;99.90;;;;;;4996748;28;20050;-69
2022/09/05 00:15:23;;;;;;;3.85;2.42;;;14.50;99.90;;;;;;4994900;28;20030;-69
2022/09/05 00:18:24;;;;;;;10.30;2.72;;;14.50;99.90;;;;;;4996055;28;20065;-69
2022/09/05 00:21:25;;;;;;;9.80;2.15;;;14.50;99.90;;;;;;4996070;28;20509;-69
2022/09/05 00:24:12;;;;;;;8.55;2.42;;;14.40;99.90;;;;;;4995502;28;20105;-68
2022/09/05 00:27:01;;;;;;;3.80;2.13;;;14.50;99.90;;;;;;4996013;28;20030;-68
2022/09/05 00:29:52;;;;;;;5.45;2.63;;;14.50;99.90;;;;;;4995880;28;20446;-68
2022/09/05 00:32:35;;;;;;;8.95;2.47;;;14.50;99.90;;;;;;4995123;28;20069;-69
2022/09/05 00:35:33;;;;;;;6.82;2.60;;;14.40;99.90;;;;;;4996017;28;20018;-69
2022/09/05 00:38:16;;;;;;;5.60;2.22;;;14.40;99.90;;;;;;4994374;28;20027;-69
2022/09/05 00:40:43;;;;;;;37.60;3.55;;;14.40;99.90;;;;;;4995938;28;20101;-68
2022/09/05 00:43:23;;;;;;;9.38;2.70;;;14.40;99.90;;;;;;4995106;28;20490;-68
2022/09/05 00:46:21;;;;;;;10.98;2.22;;;14.30;99.90;;;;;;4995666;28;20031;-68
2022/09/05 00:49:06;;;;;;;6.50;2.30;;;14.30;99.90;;;;;;4995268;28;20038;-68
2022/09/05 00:51:57;;;;;;;7.63;2.25;;;14.30;99.90;;;;;;4994212;28;20022;-68
2022/09/05 00:54:22;;;;;;;8.05;3.03;;;14.30;99.90;;;;;;4992128;28;20127;-68
2022/09/05 00:57:29;;;;;;;11.57;2.63;;;14.20;99.90;;;;;;4994767;28;20130;-68
2022/09/05 01:00:10;;;;;;;11.93;2.88;;;14.30;99.90;;;;;;4995260;28;20089;-68
2022/09/05 01:03:08;;;;;;;9.27;2.47;;;14.20;99.90;;;;;;4993947;28;20561;-69
2022/09/05 01:06:00;;;;;;;4.28;1.80;;;14.20;99.90;;;;;;4994736;28;20022;-69
2022/09/05 01:08:38;;;;;;;7.85;2.25;;;14.20;99.90;;;;;;4995015;28;20037;-68
2022/09/05 01:11:27;;;;;;;7.13;2.90;;;14.30;99.90;;;;;;4993847;28;20023;-68
2022/09/05 01:14:25;;;;;;;6.03;2.47;;;14.30;99.90;;;;;;4995437;28;20027;-71
2022/09/05 01:17:29;;;;;;;4.05;2.17;;;14.20;99.90;;;;;;4983840;28;20030;-69
2022/09/05 01:20:03;;;;;;;;;;;14.30;99.90;;;;;;4995295;28;20481;-69
2022/09/05 01:22:41;;;;;;;11.27;2.47;;;14.30;99.90;;;;;;4994446;28;19909;-68
2022/09/05 01:25:42;;;;;;;9.23;2.67;;;14.30;99.90;;;;;;4994818;28;20022;-68
2022/09/05 01:28:17;;;;;;;6.00;2.30;;;14.30;99.90;;;;;;4994233;28;20490;-68
2022/09/05 01:31:06;;;;;;;10.60;2.70;;;14.40;99.90;;;;;;4994665;28;20030;-68
2022/09/05 01:34:01;;;;;;;9.27;2.55;;;14.40;99.90;;;;;;4994727;28;20057;-68
2022/09/05 01:37:00;;;;;;;6.72;2.33;;;14.40;99.90;;;;;;4993342;28;20406;-69
2022/09/05 01:39:51;;;;;;;8.40;2.33;;;14.40;99.90;;;;;;4994864;28;20441;-69
2022/09/05 01:42:28;;;;;;;14.88;2.38;;;14.40;99.90;;;;;;4994805;28;20418;-68
2022/09/05 01:45:19;;;;;;;5.00;2.20;;;14.40;99.90;;;;;;4994739;28;20026;-68
2022/09/05 01:48:20;;;;;;;10.68;2.65;;;14.40;99.90;;;;;;4994013;28;20023;-69
2022/09/05 01:51:25;;;;;;;6.80;2.00;;;14.40;99.90;;;;;;4994678;28;20104;-68
2022/09/05 01:53:57;;;;;;;15.15;2.80;;;14.40;99.90;;;;;;4994933;28;20490;-68
2022/09/05 01:56:34;;;;;;;8.82;2.50;;;14.30;99.90;;;;;;4994519;28;20034;-68
2022/09/05 01:59:00;;;;;;;10.48;2.65;;;14.40;99.90;;;;;;4994259;28;20478;-68
2022/09/05 02:01:52;;;;;;;12.52;2.50;;;14.40;99.90;;;;;;4994221;28;20045;-68
2022/09/05 02:04:32;;;;;;;6.63;2.35;;;14.40;99.90;;;;;;4994273;28;20029;-69
2022/09/05 02:06:57;;;;;;;10.55;2.20;;;14.30;99.90;;;;;;5009865;23;20842;-67
2022/09/05 02:09:31;;;;;;;10.50;3.55;;;14.30;99.90;;;;;;4974557;28;20505;-67
2022/09/05 02:12:05;;;;;;;7.63;1.90;;;14.30;99.90;;;;;;4974376;28;20051;-67
2022/09/05 02:14:59;;;;;;;5.97;2.40;;;14.30;99.90;;;;;;4974803;28;20391;-67
2022/09/05 02:17:30;;;;;;;3.72;1.90;;;14.30;99.90;;;;;;4974623;28;20114;-67
2022/09/05 02:20:05;;;;;;;9.93;2.38;;;14.20;99.90;;;;;;4974506;28;20031;-66
2022/09/05 02:22:41;;;;;;;7.50;2.10;;;14.20;99.90;;;;;;4974754;28;20037;-67
2022/09/05 02:25:13;;;;;;;6.50;2.63;;;14.30;99.90;;;;;;4974504;28;20511;-68
2022/09/05 02:27:58;;;;;;;6.40;2.28;;;14.20;99.90;;;;;;4974678;28;20529;-68
2022/09/05 02:30:29;;;;;;;6.95;2.40;;;14.20;99.90;;;;;;4974855;28;20022;-68
2022/09/05 02:33:30;;;;;;;7.65;2.47;;;14.20;99.90;;;;;;4977051;28;20030;-68
2022/09/05 02:36:05;;;;;;;8.38;2.72;;;14.20;99.90;;;;;;4978016;28;20061;-68
2022/09/05 02:38:53;;;;;;;16.38;2.20;;;14.20;99.90;;;;;;4978373;28;20062;-68
2022/09/05 02:41:31;;;;;;;11.00;2.70;;;14.20;99.90;;;;;;4978724;28;20027;-68
2022/09/05 02:44:12;;;;;;;8.50;2.15;;;14.20;99.90;;;;;;4978165;28;20057;-68
2022/09/05 02:46:44;;;;;;;5.18;2.10;;;14.10;99.90;;;;;;4978437;28;20062;-68
2022/09/05 02:49:34;;;;;;;6.85;2.38;;;14.20;99.90;;;;;;4978344;28;20023;-67
2022/09/05 02:52:06;;;;;;;6.35;2.20;;;14.10;99.90;;;;;;4978505;28;20027;-67
2022/09/05 02:54:38;;;;;;;10.27;2.80;;;14.00;99.90;;;;;;4978186;28;20098;-66
2022/09/05 02:57:27;;;;;;;6.10;2.15;;;14.10;99.90;;;;;;4978234;28;20026;-67
2022/09/05 03:00:10;;;;;;;3.88;2.00;;;14.00;99.90;;;;;;4968197;28;20101;-67
2022/09/05 03:03:01;;;;;;;11.68;2.78;;;14.00;99.90;;;;;;4978345;28;20076;-66
2022/09/05 03:05:56;;;;;;;5.88;2.30;;;14.00;99.90;;;;;;4955487;28;20506;-67
2022/09/05 03:08:29;;;;;;;;;;;14.00;99.90;;;;;;4977795;28;20051;-67
2022/09/05 03:11:30;;;;;;;14.10;2.38;;;14.00;99.90;;;;;;4977530;28;19910;-67
2022/09/05 03:14:27;;;;;;;15.23;3.47;;;14.00;99.90;;;;;;4977826;28;20027;-67
2022/09/05 03:16:53;;;;;;;6.93;2.08;;;13.90;99.90;;;;;;4976659;28;20041;-67
2022/09/05 03:19:28;;;;;;;12.80;2.83;;;13.90;99.90;;;;;;4978268;28;20031;-67
2022/09/05 03:22:31;;;;;;;13.50;2.70;;;13.90;99.90;;;;;;4977156;28;20027;-66
2022/09/05 03:25:34;;;;;;;6.35;2.17;;;13.80;99.90;;;;;;4977622;28;20023;-67
2022/09/05 03:28:30;;;;;;;17.23;3.20;;;13.70;99.90;;;;;;4977480;28;20041;-67
2022/09/05 03:31:29;;;;;;;5.95;2.38;;;13.70;99.90;;;;;;4977525;28;20039;-67
2022/09/05 03:34:08;;;;;;;5.35;2.88;;;13.70;99.90;;;;;;4976901;28;20022;-67
2022/09/05 03:36:55;;;;;;;11.70;3.85;;;13.60;99.90;;;;;;4977423;28;20019;-66
2022/09/05 03:39:41;;;;;;;11.40;2.72;;;13.60;99.90;;;;;;4977341;28;20019;-66
2022/09/05 03:42:22;;;;;;;14.68;3.13;;;13.60;99.90;;;;;;4977298;28;20023;-67
2022/09/05 03:44:54;;;;;;;8.60;3.15;;;13.60;99.90;;;;;;4976332;28;20040;-67
2022/09/05 03:47:42;;;;;;;5.57;2.47;;;13.60;99.90;;;;;;4977029;28;20037;-67
2022/09/05 03:50:20;;;;;;;3.03;2.10;;;13.60;99.90;;;;;;4975453;28;20530;-68
2022/09/05 03:53:23;;;;;;;9.52;2.85;;;13.60;99.90;;;;;;4977138;28;20529;-68
2022/09/05 03:56:20;;;;;;;13.00;3.22;;;13.60;99.90;;;;;;4976865;28;20386;-68
2022/09/05 03:58:45;;;;;;;11.95;2.83;;;13.60;99.90;;;;;;4977022;28;20054;-68
2022/09/05 04:01:19;;;;;;;6.80;3.63;;;13.60;99.90;;;;;;4976909;28;20045;-68
2022/09/05 04:03:52;;;;;;;8.55;2.50;;;13.60;99.90;;;;;;4977256;28;20033;-68
2022/09/05 04:06:26;;;;;;;9.90;2.60;;;13.60;99.90;;;;;;4976909;28;20458;-68
2022/09/05 04:09:10;;;;;;;12.10;3.38;;;13.60;99.90;;;;;;4976233;28;20081;-67
2022/09/05 04:11:57;;;;;;;;;;;13.60;99.90;;;;;;4977223;28;20047;-67
2022/09/05 04:14:36;;;;;;;6.00;2.45;;;13.60;99.90;;;;;;4976786;28;19906;-68
2022/09/05 04:17:17;;;;;;;7.95;3.15;;;13.60;99.90;;;;;;4976888;28;20478;-68
2022/09/05 04:19:50;;;;;;;10.80;3.03;;;13.60;99.90;;;;;;4976909;28;20097;-68
2022/09/05 04:22:36;;;;;;;9.30;3.35;;;13.60;99.90;;;;;;4977206;28;20035;-68
2022/09/05 04:25:27;;;;;;;16.20;3.85;;;13.60;99.90;;;;;;4977085;28;20517;-68
2022/09/05 04:28:18;;;;;;;14.18;2.85;;;13.50;99.90;;;;;;4975961;28;20026;-67
2022/09/05 04:30:59;;;;;;;12.73;3.35;;;13.60;99.90;;;;;;4976427;28;20022;-68
2022/09/05 04:33:37;;;;;;;4.20;2.97;;;13.60;99.90;;;;;;4976682;28;20447;-68
2022/09/05 04:36:27;;;;;;;7.85;3.45;;;13.60;99.90;;;;;;4976253;28;20075;-68
2022/09/05 04:39:17;;;;;;;7.15;3.13;;;13.60;99.90;;;;;;4976206;28;20034;-68
2022/09/05 04:41:49;;;;;;;9.77;3.10;;;13.60;99.90;;;;;;4977004;28;20023;-68
2022/09/05 04:44:20;;;;;;;9.63;3.87;;;13.60;99.90;;;;;;4976489;28;20105;-68
2022/09/05 04:47:03;;;;;;;9.70;3.17;;;13.70;99.90;;;;;;4976297;28;20037;-68
2022/09/05 04:49:36;;;;;;;7.15;3.70;;;13.70;99.90;;;;;;4975833;28;20118;-68
2022/09/05 04:52:20;;;;;;;10.60;3.75;;;13.70;99.90;;;;;;4991038;28;20022;-68
2022/09/05 04:54:53;;;;;;;9.80;3.50;;;13.70;99.90;;;;;;4976342;28;20027;-68
2022/09/05 04:57:19;;;;;;;;;;;13.70;99.90;;;;;;4975534;28;20039;-68
2022/09/05 04:59:51;;;;;;;8.02;3.33;;;13.70;99.90;;;;;;4975346;28;20288;-68
2022/09/05 05:02:20;;;;;;;15.77;3.72;;;13.80;99.90;;;;;;4976063;28;20483;-68
2022/09/05 05:04:47;;;;;;;8.20;3.40;;;13.80;99.90;;;;;;4975768;28;20023;-68
2022/09/05 05:07:53;;;;;;;10.82;4.07;;;13.80;99.90;;;;;;4975399;28;20073;-68
2022/09/05 05:10:39;;;;;;;7.05;3.33;;;13.80;99.90;;;;;;4968542;28;20110;-68
2022/09/05 05:13:14;;;;;;;11.02;3.80;;;13.80;99.90;;;;;;4975206;28;20019;-68
2022/09/05 05:15:54;;;;;;;8.88;2.72;;;13.90;99.90;;;;;;4975913;28;20471;-68
2022/09/05 05:18:32;;;;;;;9.85;3.38;;;13.90;99.90;;;;;;4975531;28;20081;-68
2022/09/05 05:21:13;;;;;;;8.52;3.22;;;13.90;99.90;;;;;;4975545;28;20442;-68
2022/09/05 05:23:48;;;;;;;7.40;3.35;;;14.00;99.90;;;;;;4975086;28;20019;-68
2022/09/05 05:26:31;;;;;;;5.43;3.30;;;14.00;99.90;;;;;;4975650;28;20031;-68
2022/09/05 05:29:13;;;;;;;6.78;3.28;;;14.10;99.90;;;;;;4975305;28;20019;-68
2022/09/05 05:31:46;;;;;;;16.50;4.20;;;14.20;99.90;;;;;;4974842;28;20102;-68
2022/09/05 05:34:23;;;;;;;7.53;4.03;;;14.20;99.90;;;;;;4975561;28;20034;-68
2022/09/05 05:37:17;;;;;;;8.45;4.10;;;14.30;99.90;;;;;;4975156;28;20109;-68
2022/09/05 05:40:04;;;;;;;8.63;3.92;;;14.40;99.90;;;;;;4975468;28;20027;-68
2022/09/05 05:42:30;;;;;;;7.30;3.70;;;14.50;99.90;;;;;;4970899;28;20495;-68
2022/09/05 05:44:57;;;;;;;9.40;3.78;;;14.60;99.90;;;;;;4975340;28;20395;-68
2022/09/05 05:47:28;;;;;;;23.17;4.55;;;14.70;99.90;;;;;;4975138;28;20035;-68
2022/09/05 05:50:25;;;;;;;6.30;3.40;;;14.70;99.90;;;;;;4975352;28;20026;-68
2022/09/05 05:53:28;;;;;;;12.63;4.70;;;14.80;99.90;;;;;;4975300;28;20030;-68
2022/09/05 05:56:16;;;;;;;7.10;3.50;;;14.90;99.90;;;;;;4974479;28;20037;-68
2022/09/05 05:58:57;;;;;;;11.68;3.88;;;15.00;99.90;;;;;;4975159;28;20051;-68
2022/09/05 06:01:41;;;;;;;9.65;3.45;;;15.10;99.90;;;;;;4974863;28;20031;-68
2022/09/05 06:04:10;;;;;;;;;;;15.20;99.90;;;;;;4974725;28;20448;-68
2022/09/05 06:07:26;;;;;;;12.18;3.17;;;15.30;99.90;;;;;;4974656;28;20290;-68
2022/09/05 06:10:04;;;;;;;9.35;3.63;;;15.40;99.90;;;;;;4966674;28;20479;-68
2022/09/05 06:13:10;;;;;;;6.57;2.80;;;15.50;99.90;;;;;;4974735;28;20054;-68
2022/09/05 06:16:12;;;;;;;9.50;3.97;;;15.60;99.90;;;;;;4974927;28;20023;-69
2022/09/05 06:19:13;;;;;;;5.65;3.42;;;15.70;99.90;;;;;;4974544;28;20447;-68
2022/09/05 06:22:09;;;;;;;8.77;3.78;;;15.90;99.90;;;;;;4974639;28;20037;-68
2022/09/05 06:25:16;;;;;;;10.60;3.00;;;16.00;99.90;;;;;;4974632;28;20050;-68
2022/09/05 06:28:01;;;;;;;6.55;3.35;;;16.30;99.90;;;;;;4969889;28;20043;-69
2022/09/05 06:30:41;;;;;;;6.57;4.03;;;16.50;99.90;;;;;;4973805;28;20027;-68
2022/09/05 06:33:13;;;;;;;9.73;3.03;;;16.70;99.90;;;;;;4974493;28;20034;-69
2022/09/05 06:36:02;;;;;;;6.75;3.15;;;16.90;99.90;;;;;;4972694;28;20041;-68
2022/09/05 06:38:41;;;;;;;10.48;3.72;;;17.00;99.90;;;;;;4944362;29;20043;-69
2022/09/05 06:41:28;;;;;;;15.07;3.45;;;17.20;99.90;;;;;;4964603;28;20495;-68
2022/09/05 06:44:19;;;;;;;7.68;3.70;;;17.30;99.90;;;;;;4974282;28;20035;-68
2022/09/05 06:46:52;;;;;;;15.98;4.10;;;17.40;99.90;;;;;;4974158;28;20085;-69
2022/09/05 06:49:46;;;;;;;16.75;3.83;;;17.50;99.90;;;;;;4974417;28;20468;-69
2022/09/05 06:52:42;;;;;;;4.63;3.05;;;17.60;99.90;;;;;;4952622;28;20390;-69
2022/09/05 06:55:26;;;;;;;12.40;3.13;;;17.60;99.90;;;;;;4971128;28;20043;-69
2022/09/05 06:58:15;;;;;;;7.15;3.45;;;17.60;99.90;;;;;;4954449;29;20027;-69
2022/09/05 07:00:58;;;;;;;7.05;2.30;;;17.50;99.90;;;;;;4971704;28;20034;-67
2022/09/05 07:03:29;;;;;;;11.77;3.47;;;17.50;99.90;;;;;;4973233;28;20078;-69
2022/09/05 07:06:09;;;;;;;11.60;3.40;;;17.40;99.90;;;;;;4974390;28;20086;-68
2022/09/05 07:09:03;;;;;;;12.60;3.50;;;17.40;99.90;;;;;;4974075;28;20430;-68
2022/09/05 07:11:31;;;;;;;8.60;3.17;;;17.40;99.90;;;;;;4973794;28;20081;-68
2022/09/05 07:14:03;;;;;;;7.03;3.58;;;17.50;99.90;;;;;;4974414;28;20364;-68
2022/09/05 07:17:04;;;;;;;10.68;3.38;;;17.60;99.90;;;;;;4974675;28;20051;-68
2022/09/05 07:19:43;;;;;;;10.82;3.53;;;17.70;99.90;;;;;;4969009;28;20113;-68
2022/09/05 07:22:28;;;;;;;5.75;3.70;;;17.90;99.90;;;;;;4978269;28;20033;-68
2022/09/05 07:24:55;;;;;;;7.28;3.25;;;18.10;99.90;;;;;;4976886;28;20069;-68
2022/09/05 07:27:42;;;;;;;7.72;3.45;;;18.30;99.90;;;;;;4977450;28;20102;-68
2022/09/05 07:30:09;;;;;;;5.63;3.45;;;18.50;99.90;;;;;;4977834;28;20030;-68
2022/09/05 07:32:41;;;;;;;12.55;4.05;;;18.80;99.90;;;;;;4958474;28;20034;-68
2022/09/05 07:35:15;;;;;;;8.23;3.53;;;19.10;99.90;;;;;;4966990;28;20023;-68
2022/09/05 07:37:43;;;;;;;9.02;3.42;;;19.30;99.90;;;;;;4976356;28;20023;-68
2022/09/05 07:40:15;;;;;;;8.80;3.55;;;19.50;99.90;;;;;;4977518;28;20035;-68
2022/09/05 07:42:47;;;;;;;4.70;2.72;;;19.70;99.90;;;;;;4975418;28;20023;-68
2022/09/05 07:45:22;;;;;;;8.20;2.80;;;19.90;99.90;;;;;;4977168;28;20537;-68
2022/09/05 07:48:22;;;;;;;6.57;3.38;;;19.90;99.90;;;;;;4976846;28;20031;-68
2022/09/05 07:50:59;;;;;;;9.95;3.78;;;19.90;99.90;;;;;;4966741;28;20471;-68
2022/09/05 07:53:26;;;;;;;6.10;2.63;;;20.00;99.90;;;;;;4977222;28;20027;-68
2022/09/05 07:55:58;;;;;;;7.63;3.83;;;20.30;99.90;;;;;;4977334;28;20019;-69
2022/09/05 07:58:48;;;;;;;10.85;3.35;;;20.40;99.90;;;;;;4977239;28;20030;-69
2022/09/05 08:01:17;;;;;;;10.95;3.13;;;20.50;99.90;;;;;;4976599;28;20054;-69
2022/09/05 08:03:43;;;;;;;10.48;3.65;;;20.70;99.90;;;;;;4977197;28;20074;-68
2022/09/05 08:06:21;;;;;;;6.60;2.97;;;20.90;99.90;;;;;;4977233;28;20035;-68
2022/09/05 08:08:51;;;;;;;6.72;3.53;;;21.00;99.90;;;;;;5026846;23;20457;-70
2022/09/05 08:11:20;;;;;;;15.95;2.63;;;21.10;99.90;;;;;;4996119;28;20022;-70
2022/09/05 08:13:52;;;;;;;9.05;2.80;;;21.10;99.90;;;;;;4989366;28;20069;-71
2022/09/05 08:16:23;;;;;;;8.57;2.75;;;21.30;99.90;;;;;;4977280;28;20040;-71
2022/09/05 08:19:26;;;;;;;5.22;2.83;;;21.30;99.90;;;;;;4977133;28;20415;-71
2022/09/05 08:21:53;;;;;;;6.20;2.83;;;21.30;99.90;;;;;;4977158;28;20033;-71
2022/09/05 08:24:46;;;;;;;6.43;2.45;;;21.30;99.90;;;;;;4976828;28;20073;-71
2022/09/05 08:27:19;;;;;;;5.88;2.70;;;21.40;99.90;;;;;;4976926;28;20041;-71
2022/09/05 08:29:53;;;;;;;5.07;2.77;;;21.70;99.90;;;;;;4986855;28;20049;-71
2022/09/05 08:32:34;;;;;;;4.63;2.75;;;22.00;99.90;;;;;;4996326;28;20277;-71
2022/09/05 08:35:13;;;;;;;6.25;2.67;;;22.30;99.90;;;;;;4995723;28;20026;-71
2022/09/05 08:37:41;;;;;;;6.85;2.83;;;22.50;99.90;;;;;;4983725;28;20356;-71
2022/09/05 08:40:27;;;;;;;5.88;2.42;;;22.50;99.90;;;;;;4976872;28;20471;-71
2022/09/05 08:43:08;;;;;;;5.10;2.72;;;22.40;99.90;;;;;;4976191;28;20038;-71
2022/09/05 08:45:42;;;;;;;5.25;3.03;;;22.40;99.90;;;;;;4976523;28;20037;-71
2022/09/05 08:48:39;;;;;;;5.85;3.10;;;22.40;99.90;;;;;;4976642;28;20173;-71
2022/09/05 08:51:27;;;;;;;4.63;2.70;;;22.60;99.90;;;;;;4976517;28;20419;-71
2022/09/05 08:54:14;;;;;;;11.32;2.72;;;22.60;99.90;;;;;;4976936;28;20030;-71
2022/09/05 08:56:49;;;;;;;13.70;3.00;;;22.80;99.90;;;;;;4975846;28;20505;-71
2022/09/05 08:59:20;;;;;;;8.23;2.65;;;23.00;99.90;;;;;;4976510;28;20529;-71
2022/09/05 09:01:48;;;;;;;6.47;2.67;;;23.40;99.90;;;;;;4976235;28;20526;-71
2022/09/05 09:04:30;;;;;;;9.52;2.97;;;23.70;99.90;;;;;;4976427;28;20027;-71
2022/09/05 09:07:01;;;;;;;11.32;3.20;;;24.00;99.90;;;;;;4976538;28;20054;-71
2022/09/05 09:09:50;;;;;;;4.10;2.28;;;24.30;99.90;;;;;;4975415;28;20031;-71
2022/09/05 09:12:40;;;;;;;7.22;3.13;;;24.40;99.90;;;;;;4976274;28;20025;-71
2022/09/05 09:15:27;;;;;;;5.35;2.90;;;24.70;99.90;;;;;;4976231;28;20027;-71
2022/09/05 09:17:54;;;;;;;5.57;2.88;;;24.70;99.90;;;;;;4976144;28;20545;-71
2022/09/05 09:20:46;;;;;;;5.93;2.97;;;24.40;99.90;;;;;;4975910;28;20390;-71
2022/09/05 09:23:39;;;;;;;5.32;2.53;;;24.40;99.90;;;;;;4976128;28;20050;-71
2022/09/05 09:26:14;;;;;;;4.60;2.80;;;24.50;99.90;;;;;;4975165;28;20027;-71
2022/09/05 09:28:43;;;;;;;2.75;2.13;;;24.60;99.90;;;;;;4975612;28;20026;-71
2022/09/05 09:31:11;;;;;;;7.18;2.80;;;24.90;99.90;;;;;;4976417;28;20367;-71
2022/09/05 09:34:00;;;;;;;3.75;2.40;;;25.50;99.90;;;;;;4975247;28;20023;-71
2022/09/05 09:36:52;;;;;;;11.32;2.55;;;25.90;99.90;;;;;;4975445;28;20066;-71
2022/09/05 09:39:27;;;;;;;12.90;2.38;;;26.20;99.90;;;;;;4975540;28;20066;-71
2022/09/05 09:42:11;;;;;;;6.40;2.78;;;26.20;99.90;;;;;;4975021;28;20022;-71
2022/09/05 09:45:01;;;;;;;6.60;2.90;;;26.30;99.90;;;;;;4975180;28;20030;-71
2022/09/05 09:48:00;;;;;;;5.22;3.00;;;26.50;99.90;;;;;;4975506;28;20035;-70
2022/09/05 09:50:37;;;;;;;5.93;2.72;;;26.20;99.90;;;;;;4975616;28;20438;-70
2022/09/05 09:53:41;;;;;;;6.60;2.60;;;26.20;99.90;;;;;;4975275;28;20146;-70
2022/09/05 09:56:34;;;;;;;4.60;2.25;;;26.30;99.90;;;;;;4974792;28;20165;-70
2022/09/05 09:59:30;;;;;;;6.43;2.45;;;26.40;99.90;;;;;;4974547;28;20025;-70
2022/09/05 10:02:14;;;;;;;7.00;2.50;;;26.60;99.90;;;;;;4975245;28;20367;-70
2022/09/05 10:04:57;;;;;;;7.13;2.67;;;26.40;99.90;;;;;;4975276;28;20023;-71
2022/09/05 10:07:43;;;;;;;3.95;2.50;;;26.10;99.90;;;;;;4975257;28;20049;-71
2022/09/05 10:11:00;;;;;;;4.90;2.88;;;26.20;99.90;;;;;;4975007;28;20062;-70
2022/09/05 10:14:03;;;;;;;9.35;3.00;;;26.30;99.90;;;;;;4922289;28;20040;-71
2022/09/05 10:16:51;;;;;;;11.68;2.88;;;26.70;99.90;;;;;;4975172;28;20023;-71
2022/09/05 10:19:47;;;;;;;3.13;2.25;;;27.10;99.90;;;;;;4976035;28;20030;-71
2022/09/05 10:22:48;;;;;;;6.55;2.47;;;27.00;99.90;;;;;;4976350;28;20038;-71
2022/09/05 10:25:36;;;;;;;13.55;2.10;;;26.80;99.90;;;;;;4994481;28;20077;-71
2022/09/05 10:28:16;;;;;;;4.18;2.50;;;26.80;99.90;;;;;;4994036;28;20041;-71
2022/09/05 10:30:50;;;;;;;3.65;2.70;;;26.90;99.90;;;;;;4986702;28;20031;-71
2022/09/05 10:33:53;;;;;;;4.70;2.38;;;27.00;99.90;;;;;;4975126;28;20015;-71
2022/09/05 10:36:25;;;;;;;12.30;2.88;;;27.00;99.90;;;;;;4974275;28;20031;-71
2022/09/05 10:39:44;;;;;;;5.53;2.22;;;26.90;99.90;;;;;;4974682;28;20536;-71
2022/09/05 10:42:14;;;;;;;7.10;3.35;;;27.10;99.90;;;;;;4952606;28;20042;-71
2022/09/05 10:44:50;;;;;;;5.53;2.40;;;27.50;99.90;;;;;;4974085;28;20049;-71
2022/09/05 10:47:15;;;;;;;8.35;2.35;;;27.50;99.90;;;;;;4974647;28;20130;-71
2022/09/05 10:49:46;;;;;;;10.98;2.85;;;27.30;99.90;;;;;;4974573;28;20118;-71
2022/09/05 10:52:28;;;;;;;12.02;2.85;;;27.10;99.90;;;;;;4974145;28;20034;-71
2022/09/05 10:55:21;;;;;;;14.57;2.08;;;27.10;99.90;;;;;;4978441;28;20038;-71
2022/09/05 10:58:13;;;;;;;8.75;2.15;;;27.40;99.90;;;;;;4978811;28;20019;-72
2022/09/05 11:00:42;;;;;;;6.25;2.65;;;27.40;99.90;;;;;;4978584;28;20062;-71
2022/09/05 11:03:12;;;;;;;10.60;2.75;;;27.50;99.90;;;;;;4977820;28;20442;-71
2022/09/05 11:05:42;;;;;;;17.05;2.95;;;27.50;99.90;;;;;;4977093;28;20023;-71
2022/09/05 11:08:38;;;;;;;4.35;2.75;;;27.70;99.90;;;;;;4977677;28;20042;-71
2022/09/05 11:11:18;;;;;;;9.95;2.28;;;27.80;99.90;;;;;;4977365;28;20041;-71
2022/09/05 11:13:45;;;;;;;8.10;2.50;;;27.70;99.90;;;;;;4976668;28;20019;-71
2022/09/05 11:16:19;;;;;;;7.28;2.25;;;27.80;99.90;;;;;;4978218;28;20023;-71
2022/09/05 11:19:21;;;;;;;4.15;2.13;;;28.20;99.90;;;;;;4977752;28;20038;-70
2022/09/05 11:22:01;;;;;;;6.57;2.47;;;28.20;99.90;;;;;;4977346;28;20440;-71
2022/09/05 11:24:33;;;;;;;7.88;2.38;;;28.10;99.90;;;;;;4978761;28;20024;-70
2022/09/05 11:27:17;;;;;;;9.95;2.63;;;27.60;99.90;;;;;;4979958;28;20085;-70
2022/09/05 11:30:05;;;;;;;6.45;2.60;;;27.60;99.90;;;;;;4977370;28;20026;-70
2022/09/05 11:32:43;;;;;;;10.10;2.42;;;27.70;99.90;;;;;;4995141;28;20043;-70
2022/09/05 11:35:27;;;;;;;16.30;2.38;;;27.70;99.90;;;;;;4997370;28;20058;-70
2022/09/05 11:37:58;;;;;;;8.32;3.22;;;27.60;99.90;;;;;;4997047;28;20085;-70
2022/09/05 11:40:45;;;;;;;8.77;2.30;;;27.70;99.90;;;;;;4997141;28;20034;-71
2022/09/05 11:43:29;;;;;;;7.60;2.33;;;28.00;99.90;;;;;;4981227;28;20151;-70
2022/09/05 11:46:28;;;;;;;8.68;2.13;;;27.90;99.90;;;;;;4976905;28;20019;-70
2022/09/05 11:49:26;;;;;;;8.35;2.80;;;28.00;99.90;;;;;;4977369;28;20376;-70
2022/09/05 11:52:13;;;;;;;7.13;2.90;;;28.00;99.40;;;;;;4977875;28;20102;-70
2022/09/05 11:54:57;;;;;;;5.20;1.92;;;27.90;99.40;;;;;;4977467;28;20086;-71
2022/09/05 11:58:02;;;;;;;4.53;2.47;;;27.70;99.40;;;;;;4977360;28;20035;-71
2022/09/05 12:00:55;;;;;;;6.40;2.33;;;27.80;98.80;;;;;;4985531;28;20038;-70
2022/09/05 12:03:55;;;;;;;5.90;2.30;;;28.20;98.80;;;;;;4996714;28;20037;-70
2022/09/05 12:06:39;;;;;;;5.70;1.95;;;28.50;98.00;;;;;;4979310;28;20039;-70
2022/09/05 12:09:32;;;;;;;;;;;28.50;97.10;;;;;;4977283;28;20387;-70
2022/09/05 12:12:34;;;;;;;7.03;2.25;;;28.30;97.20;;;;;;4975378;28;19906;-70
2022/09/05 12:15:19;;;;;;;5.70;2.78;;;28.10;96.70;;;;;;4977029;28;20011;-70
2022/09/05 12:18:09;;;;;;;4.72;2.63;;;27.80;96.10;;;;;;4976929;28;20030;-70
2022/09/05 12:20:55;;;;;;;6.60;2.63;;;27.50;96.60;;;;;;4976895;28;20115;-70
2022/09/05 12:23:44;;;;;;;10.85;3.17;;;27.00;96.30;;;;;;4977028;28;20027;-70
2022/09/05 12:26:42;;;;;;;8.48;2.95;;;26.90;97.00;;;;;;4976249;28;20071;-70
2022/09/05 12:29:14;;;;;;;11.02;2.88;;;26.90;96.80;;;;;;4976613;28;20042;-70
2022/09/05 12:31:59;;;;;;;7.75;3.00;;;27.00;96.30;;;;;;4976884;28;20375;-70
2022/09/05 12:34:54;;;;;;;6.88;2.92;;;26.90;96.60;;;;;;4976116;28;20080;-70
2022/09/05 12:37:22;;;;;;;6.18;2.80;;;27.10;97.40;;;;;;4976655;28;20047;-70
2022/09/05 12:40:09;;;;;;;9.95;2.08;;;27.30;98.30;;;;;;4978245;28;20027;-70
2022/09/05 12:42:40;;;;;;;10.25;2.50;;;27.50;96.50;;;;;;4977265;28;20077;-70
2022/09/05 12:45:31;;;;;;;4.68;2.63;;;27.80;96.00;;;;;;4976327;28;20062;-70
2022/09/05 12:48:03;;;;;;;11.10;2.72;;;28.30;95.60;;;;;;4976237;28;20049;-70
2022/09/05 12:50:48;;;;;;;11.15;2.58;;;28.70;96.60;;;;;;4976188;28;20027;-70
2022/09/05 12:53:19;;;;;;;6.55;2.22;;;28.70;94.70;;;;;;4975727;28;20121;-70
2022/09/05 12:56:01;;;;;;;5.43;1.92;;;28.70;95.20;;;;;;4976138;28;20022;-70
2022/09/05 12:58:30;;;;;;;8.60;2.47;;;28.30;95.40;;;;;;4976289;28;20023;-70
2022/09/05 13:01:22;;;;;;;8.85;2.38;;;27.80;95.80;;;;;;4976335;28;20035;-70
2022/09/05 13:04:20;;;;;;;7.45;2.63;;;28.10;96.40;;;;;;4968320;28;20070;-70
2022/09/05 13:06:57;;;;;;;7.78;2.70;;;28.80;95.10;;;;;;4975528;28;20054;-70
2022/09/05 13:09:24;;;;;;;7.88;2.03;;;29.90;95.30;;;;;;4975698;28;20143;-70
2022/09/05 13:11:53;;;;;;;7.22;2.67;;;30.80;93.50;;;;;;4975978;28;20451;-71
2022/09/05 13:14:27;;;;;;;10.52;2.83;;;30.70;92.50;;;;;;4976072;28;20058;-71
2022/09/05 13:16:55;;;;;;;6.78;2.47;;;30.60;91.60;;;;;;4974409;28;20035;-71
2022/09/05 13:19:42;;;;;;;7.65;2.17;;;30.40;91.90;;;;;;4975666;28;20026;-71
2022/09/05 13:22:13;;;;;;;11.38;2.55;;;30.00;91.40;;;;;;4975673;28;20058;-70
2022/09/05 13:24:41;;;;;;;13.05;2.40;;;30.00;92.80;;;;;;4975877;28;20022;-71
2022/09/05 13:27:20;;;;;;;8.52;2.65;;;30.10;92.50;;;;;;4974892;28;20479;-71
2022/09/05 13:29:53;;;;;;;5.00;2.08;;;29.50;92.20;;;;;;4975456;28;20023;-71
2022/09/05 13:32:21;;;;;;;;;;;29.00;92.80;;;;;;4976039;28;20027;-70
2022/09/05 13:34:54;;;;;;;7.55;2.65;;;28.70;93.40;;;;;;4975733;28;19913;-70
2022/09/05 13:37:45;;;;;;;8.57;2.70;;;28.70;93.30;;;;;;4975531;28;20026;-70
2022/09/05 13:40:18;;;;;;;9.93;3.40;;;28.60;93.10;;;;;;4964997;28;20499;-70
2022/09/05 13:42:56;;;;;;;9.90;2.85;;;28.20;93.10;;;;;;4975346;28;20486;-70
2022/09/05 13:45:21;;;;;;;11.23;3.40;;;28.20;93.20;;;;;;4975521;28;20042;-71
2022/09/05 13:47:55;;;;;;;9.35;2.97;;;28.40;92.50;;;;;;4975113;28;20027;-71
2022/09/05 13:50:31;;;;;;;;;;;28.60;92.60;;;;;;4975900;28;20074;-71
2022/09/05 13:53:15;;;;;;;6.75;2.65;;;28.60;92.60;;;;;;4974693;28;19906;-71
2022/09/05 13:55:52;;;;;;;7.72;2.80;;;29.00;93.30;;;;;;4975125;28;20086;-71
2022/09/05 13:58:38;;;;;;;8.23;2.88;;;29.30;92.90;;;;;;4975693;28;20045;-71
2022/09/05 14:01:13;;;;;;;8.63;3.17;;;29.20;92.40;;;;;;4975323;28;20027;-71
2022/09/05 14:04:17;;;;;;;10.80;3.00;;;28.80;93.10;;;;;;4974487;28;20019;-70
2022/09/05 14:06:58;;;;;;;;;;;28.20;92.70;;;;;;4975408;28;20030;-70